Alexandria, Alabama
Current Conditions -  °F | °C
As of 8:53 AM on Monday 24 Nov 2014 (Local Time) from KANB Reporting Station
Few Clouds Few Clouds  
Wind Chill: 66°   Ceiling: Unl
Heat Index: 66°   Visibility: 10mi
Dew Point: 58°   Wind: 15mph
Humidity: 75%   Direction: 230°SW
Pressure: 29.8"   Gusts: 25mph
Location:  33.77°N, 85.89°W
Report Text: KANB 241453Z AUTO 23013G22KT 10SM FEW021 FEW026 19/14 A2980 RMK AO2 SLP089 T01890144 53021
Loading
Personal Weather Stations






























Interactive Weather Map New forecast layout! Learn more

10-Day Weather Forecast

Advertisements
Track Severe Weather on mobile